sensor_id;sensor_type;location;lat;lon;timestamp;pressure;altitude;pressure_sealevel;temperature;humidity
35577;BME280;21680;52.400;16.920;2023-04-22T00:01:24;100796.48;;;9.74;50.53
35577;BME280;21680;52.400;16.920;2023-04-22T00:03:50;100793.76;;;9.71;50.59
35577;BME280;21680;52.400;16.920;2023-04-22T00:06:16;100792.66;;;9.67;50.60
35577;BME280;21680;52.400;16.920;2023-04-22T00:08:42;100793.75;;;9.61;50.61
35577;BME280;21680;52.400;16.920;2023-04-22T00:11:08;100786.80;;;9.56;50.65
35577;BME280;21680;52.400;16.920;2023-04-22T00:13:34;100784.63;;;9.52;50.76
35577;BME280;21680;52.400;16.920;2023-04-22T00:16:05;100783.64;;;9.50;50.91
35577;BME280;21680;52.400;16.920;2023-04-22T00:18:33;100780.86;;;9.48;50.86
35577;BME280;21680;52.400;16.920;2023-04-22T00:20:59;100777.23;;;9.45;51.00
35577;BME280;21680;52.400;16.920;2023-04-22T00:23:24;100777.72;;;9.41;51.13
35577;BME280;21680;52.400;16.920;2023-04-22T00:25:50;100777.30;;;9.38;51.25
35577;BME280;21680;52.400;16.920;2023-04-22T00:28:15;100772.59;;;9.35;51.32
35577;BME280;21680;52.400;16.920;2023-04-22T00:30:40;100772.52;;;9.32;51.39
35577;BME280;21680;52.400;16.920;2023-04-22T00:33:05;100773.01;;;9.29;51.41
35577;BME280;21680;52.400;16.920;2023-04-22T00:35:32;100770.10;;;9.26;51.52
35577;BME280;21680;52.400;16.920;2023-04-22T00:37:57;100770.54;;;9.23;51.48
35577;BME280;21680;52.400;16.920;2023-04-22T00:40:22;100768.68;;;9.20;51.57
35577;BME280;21680;52.400;16.920;2023-04-22T00:42:49;100768.13;;;9.16;51.63
35577;BME280;21680;52.400;16.920;2023-04-22T00:45:15;100769.34;;;9.12;51.75
35577;BME280;21680;52.400;16.920;2023-04-22T00:47:43;100768.94;;;9.08;51.72
35577;BME280;21680;52.400;16.920;2023-04-22T00:50:09;100769.27;;;9.04;51.81
35577;BME280;21680;52.400;16.920;2023-04-22T00:52:34;100767.61;;;9.00;51.88
35577;BME280;21680;52.400;16.920;2023-04-22T00:55:00;100766.83;;;8.97;51.80
35577;BME280;21680;52.400;16.920;2023-04-22T00:57:25;100769.95;;;8.94;51.90
35577;BME280;21680;52.400;16.920;2023-04-22T00:59:51;100768.09;;;8.91;51.90
35577;BME280;21680;52.400;16.920;2023-04-22T01:02:17;100770.67;;;8.89;52.02
35577;BME280;21680;52.400;16.920;2023-04-22T01:04:43;100770.79;;;8.86;52.06
35577;BME280;21680;52.400;16.920;2023-04-22T01:07:10;100773.91;;;8.83;52.23
35577;BME280;21680;52.400;16.920;2023-04-22T01:09:35;100774.59;;;8.79;52.13
35577;BME280;21680;52.400;16.920;2023-04-22T01:12:01;100771.19;;;8.74;52.10
35577;BME280;21680;52.400;16.920;2023-04-22T01:14:26;100770.93;;;8.71;52.24
35577;BME280;21680;52.400;16.920;2023-04-22T01:16:52;100773.52;;;8.68;52.16
35577;BME280;21680;52.400;16.920;2023-04-22T01:19:18;100774.00;;;8.64;52.32
35577;BME280;21680;52.400;16.920;2023-04-22T01:21:44;100771.99;;;8.60;52.33
35577;BME280;21680;52.400;16.920;2023-04-22T01:24:11;100772.10;;;8.57;52.30
35577;BME280;21680;52.400;16.920;2023-04-22T01:26:36;100774.83;;;8.56;52.51
35577;BME280;21680;52.400;16.920;2023-04-22T01:29:03;100775.56;;;8.55;52.53
35577;BME280;21680;52.400;16.920;2023-04-22T01:31:29;100773.15;;;8.53;52.60
35577;BME280;21680;52.400;16.920;2023-04-22T01:33:56;100772.52;;;8.50;52.57
35577;BME280;21680;52.400;16.920;2023-04-22T01:36:23;100775.27;;;8.48;52.66
35577;BME280;21680;52.400;16.920;2023-04-22T01:38:49;100773.75;;;8.45;52.62
35577;BME280;21680;52.400;16.920;2023-04-22T01:41:14;100772.95;;;8.42;52.68
35577;BME280;21680;52.400;16.920;2023-04-22T01:43:41;100771.77;;;8.40;52.78
35577;BME280;21680;52.400;16.920;2023-04-22T01:46:07;100773.64;;;8.38;52.76
35577;BME280;21680;52.400;16.920;2023-04-22T01:48:33;100768.94;;;8.34;52.94
35577;BME280;21680;52.400;16.920;2023-04-22T01:50:59;100768.98;;;8.32;52.94
35577;BME280;21680;52.400;16.920;2023-04-22T01:53:25;100768.56;;;8.28;53.00
35577;BME280;21680;52.400;16.920;2023-04-22T01:55:51;100765.11;;;8.25;53.02
35577;BME280;21680;52.400;16.920;2023-04-22T01:58:16;100766.83;;;8.21;53.04
35577;BME280;21680;52.400;16.920;2023-04-22T02:00:42;100764.26;;;8.18;53.19
35577;BME280;21680;52.400;16.920;2023-04-22T02:03:08;100764.33;;;8.15;53.19
35577;BME280;21680;52.400;16.920;2023-04-22T02:05:33;100762.41;;;8.14;53.20
35577;BME280;21680;52.400;16.920;2023-04-22T02:07:58;100761.74;;;8.13;53.20
35577;BME280;21680;52.400;16.920;2023-04-22T02:10:23;100758.40;;;8.12;53.25
35577;BME280;21680;52.400;16.920;2023-04-22T02:12:48;100760.03;;;8.11;53.41
35577;BME280;21680;52.400;16.920;2023-04-22T02:15:14;100760.98;;;8.09;53.45
35577;BME280;21680;52.400;16.920;2023-04-22T02:17:41;100760.33;;;8.07;53.40
35577;BME280;21680;52.400;16.920;2023-04-22T02:20:08;100755.06;;;8.05;53.60
35577;BME280;21680;52.400;16.920;2023-04-22T02:22:42;100754.58;;;8.03;53.55
35577;BME280;21680;52.400;16.920;2023-04-22T02:25:09;100755.37;;;8.01;53.65
35577;BME280;21680;52.400;16.920;2023-04-22T02:27:38;100753.98;;;7.99;53.68
35577;BME280;21680;52.400;16.920;2023-04-22T02:30:05;100752.98;;;7.98;53.69
35577;BME280;21680;52.400;16.920;2023-04-22T02:32:30;100751.63;;;7.95;53.79
35577;BME280;21680;52.400;16.920;2023-04-22T02:34:56;100749.70;;;7.94;53.80
35577;BME280;21680;52.400;16.920;2023-04-22T02:37:21;100744.94;;;7.93;53.94
35577;BME280;21680;52.400;16.920;2023-04-22T02:39:48;100744.32;;;7.90;53.94
35577;BME280;21680;52.400;16.920;2023-04-22T02:42:13;100742.28;;;7.87;54.00
35577;BME280;21680;52.400;16.920;2023-04-22T02:44:39;100742.41;;;7.83;54.03
35577;BME280;21680;52.400;16.920;2023-04-22T02:47:05;100741.18;;;7.82;54.11
35577;BME280;21680;52.400;16.920;2023-04-22T02:49:30;100742.66;;;7.81;54.12
35577;BME280;21680;52.400;16.920;2023-04-22T02:51:56;100741.86;;;7.78;54.23
35577;BME280;21680;52.400;16.920;2023-04-22T02:54:21;100739.83;;;7.75;54.25
35577;BME280;21680;52.400;16.920;2023-04-22T02:56:46;100735.98;;;7.73;54.33
35577;BME280;21680;52.400;16.920;2023-04-22T02:59:11;100738.35;;;7.71;54.35
35577;BME280;21680;52.400;16.920;2023-04-22T03:01:37;100737.58;;;7.67;54.53
35577;BME280;21680;52.400;16.920;2023-04-22T03:04:02;100740.51;;;7.64;54.43
35577;BME280;21680;52.400;16.920;2023-04-22T03:06:27;100737.77;;;7.61;54.50
35577;BME280;21680;52.400;16.920;2023-04-22T03:08:52;100731.66;;;7.57;54.51
35577;BME280;21680;52.400;16.920;2023-04-22T03:11:18;100737.04;;;7.56;54.60
35577;BME280;21680;52.400;16.920;2023-04-22T03:13:43;100736.39;;;7.54;54.66
35577;BME280;21680;52.400;16.920;2023-04-22T03:16:08;100733.62;;;7.51;54.80
35577;BME280;21680;52.400;16.920;2023-04-22T03:18:33;100734.59;;;7.48;54.83
35577;BME280;21680;52.400;16.920;2023-04-22T03:20:58;100735.53;;;7.46;54.86
35577;BME280;21680;52.400;16.920;2023-04-22T03:23:25;100730.64;;;7.43;55.06
35577;BME280;21680;52.400;16.920;2023-04-22T03:25:50;100728.75;;;7.41;54.94
35577;BME280;21680;52.400;16.920;2023-04-22T03:28:15;100730.05;;;7.39;55.09
35577;BME280;21680;52.400;16.920;2023-04-22T03:30:41;100723.90;;;7.36;55.16
35577;BME280;21680;52.400;16.920;2023-04-22T03:33:06;100725.56;;;7.35;55.21
35577;BME280;21680;52.400;16.920;2023-04-22T03:35:31;100722.95;;;7.32;55.34
35577;BME280;21680;52.400;16.920;2023-04-22T03:37:58;100722.48;;;7.30;55.30
35577;BME280;21680;52.400;16.920;2023-04-22T03:40:23;100720.64;;;7.27;55.44
35577;BME280;21680;52.400;16.920;2023-04-22T03:42:48;100719.14;;;7.23;55.52
35577;BME280;21680;52.400;16.920;2023-04-22T03:45:14;100720.42;;;7.22;55.62
35577;BME280;21680;52.400;16.920;2023-04-22T03:47:39;100715.73;;;7.18;55.66
35577;BME280;21680;52.400;16.920;2023-04-22T03:50:05;100718.48;;;7.14;55.72
35577;BME280;21680;52.400;16.920;2023-04-22T03:52:30;100723.20;;;7.11;55.79
35577;BME280;21680;52.400;16.920;2023-04-22T03:54:55;100724.86;;;7.09;55.87
35577;BME280;21680;52.400;16.920;2023-04-22T03:57:21;100724.05;;;7.07;55.99
35577;BME280;21680;52.400;16.920;2023-04-22T03:59:46;100724.82;;;7.04;56.12
35577;BME280;21680;52.400;16.920;2023-04-22T04:02:12;100727.18;;;7.02;56.14
35577;BME280;21680;52.400;16.920;2023-04-22T04:04:37;100729.19;;;7.00;56.28
35577;BME280;21680;52.400;16.920;2023-04-22T04:07:02;100727.98;;;6.99;56.24
35577;BME280;21680;52.400;16.920;2023-04-22T04:09:28;100725.50;;;6.99;56.33
35577;BME280;21680;52.400;16.920;2023-04-22T04:11:53;100723.58;;;6.98;56.36
35577;BME280;21680;52.400;16.920;2023-04-22T04:14:20;100722.55;;;6.96;56.44
35577;BME280;21680;52.400;16.920;2023-04-22T04:16:45;100723.31;;;6.95;56.55
35577;BME280;21680;52.400;16.920;2023-04-22T04:19:10;100719.06;;;6.94;56.59
35577;BME280;21680;52.400;16.920;2023-04-22T04:21:36;100715.15;;;6.94;56.76
35577;BME280;21680;52.400;16.920;2023-04-22T04:24:02;100718.11;;;6.96;56.87
35577;BME280;21680;52.400;16.920;2023-04-22T04:26:28;100718.80;;;6.97;56.87
35577;BME280;21680;52.400;16.920;2023-04-22T04:28:53;100716.85;;;6.97;56.97
35577;BME280;21680;52.400;16.920;2023-04-22T04:31:20;100719.30;;;6.98;57.05
35577;BME280;21680;52.400;16.920;2023-04-22T04:33:45;100718.25;;;6.98;57.04
35577;BME280;21680;52.400;16.920;2023-04-22T04:36:11;100720.36;;;6.98;57.11
35577;BME280;21680;52.400;16.920;2023-04-22T04:38:38;100721.23;;;6.99;57.15
35577;BME280;21680;52.400;16.920;2023-04-22T04:41:03;100720.17;;;6.99;57.23
35577;BME280;21680;52.400;16.920;2023-04-22T04:43:29;100719.60;;;7.00;57.25
35577;BME280;21680;52.400;16.920;2023-04-22T04:45:54;100725.23;;;7.02;57.40
35577;BME280;21680;52.400;16.920;2023-04-22T04:48:19;100724.13;;;7.04;57.37
35577;BME280;21680;52.400;16.920;2023-04-22T04:50:45;100724.61;;;7.05;57.47
35577;BME280;21680;52.400;16.920;2023-04-22T04:53:10;100726.89;;;7.07;57.51
35577;BME280;21680;52.400;16.920;2023-04-22T04:55:36;100726.09;;;7.10;57.60
35577;BME280;21680;52.400;16.920;2023-04-22T04:58:02;100724.96;;;7.12;57.67
35577;BME280;21680;52.400;16.920;2023-04-22T05:00:27;100720.08;;;7.15;57.64
35577;BME280;21680;52.400;16.920;2023-04-22T05:02:52;100720.86;;;7.19;57.90
35577;BME280;21680;52.400;16.920;2023-04-22T05:05:18;100721.81;;;7.23;57.89
35577;BME280;21680;52.400;16.920;2023-04-22T05:07:43;100719.52;;;7.28;57.89
35577;BME280;21680;52.400;16.920;2023-04-22T05:10:10;100723.29;;;7.34;57.92
35577;BME280;21680;52.400;16.920;2023-04-22T05:12:35;100720.67;;;7.37;57.98
35577;BME280;21680;52.400;16.920;2023-04-22T05:15:00;100719.15;;;7.41;58.01
35577;BME280;21680;52.400;16.920;2023-04-22T05:17:26;100721.50;;;7.46;58.08
35577;BME280;21680;52.400;16.920;2023-04-22T05:19:52;100716.09;;;7.48;58.08
35577;BME280;21680;52.400;16.920;2023-04-22T05:22:17;100719.00;;;7.52;58.11
35577;BME280;21680;52.400;16.920;2023-04-22T05:24:42;100717.89;;;7.54;58.09
35577;BME280;21680;52.400;16.920;2023-04-22T05:27:08;100719.57;;;7.57;58.25
35577;BME280;21680;52.400;16.920;2023-04-22T05:29:34;100725.45;;;7.62;58.31
35577;BME280;21680;52.400;16.920;2023-04-22T05:31:59;100727.11;;;7.67;58.29
35577;BME280;21680;52.400;16.920;2023-04-22T05:34:25;100730.20;;;7.70;58.35
35577;BME280;21680;52.400;16.920;2023-04-22T05:36:50;100727.44;;;7.73;58.38
35577;BME280;21680;52.400;16.920;2023-04-22T05:39:15;100730.89;;;7.76;58.51
35577;BME280;21680;52.400;16.920;2023-04-22T05:41:41;100728.08;;;7.80;58.44
35577;BME280;21680;52.400;16.920;2023-04-22T05:44:06;100722.61;;;7.84;58.43
35577;BME280;21680;52.400;16.920;2023-04-22T05:46:31;100722.06;;;7.90;58.55
35577;BME280;21680;52.400;16.920;2023-04-22T05:48:57;100724.54;;;7.97;58.55
35577;BME280;21680;52.400;16.920;2023-04-22T05:51:22;100724.88;;;8.03;58.72
35577;BME280;21680;52.400;16.920;2023-04-22T05:53:48;100727.45;;;8.11;58.68
35577;BME280;21680;52.400;16.920;2023-04-22T05:56:13;100731.46;;;8.20;58.67
35577;BME280;21680;52.400;16.920;2023-04-22T05:58:39;100729.42;;;8.27;58.79
35577;BME280;21680;52.400;16.920;2023-04-22T06:01:04;100732.02;;;8.36;58.76
35577;BME280;21680;52.400;16.920;2023-04-22T06:03:29;100728.34;;;8.45;58.87
35577;BME280;21680;52.400;16.920;2023-04-22T06:05:55;100730.01;;;8.54;58.85
35577;BME280;21680;52.400;16.920;2023-04-22T06:08:20;100731.55;;;8.60;58.94
35577;BME280;21680;52.400;16.920;2023-04-22T06:10:46;100730.24;;;8.68;58.81
35577;BME280;21680;52.400;16.920;2023-04-22T06:13:11;100732.27;;;8.76;58.92
35577;BME280;21680;52.400;16.920;2023-04-22T06:15:37;100727.61;;;8.82;58.94
35577;BME280;21680;52.400;16.920;2023-04-22T06:18:02;100728.61;;;8.89;58.93
35577;BME280;21680;52.400;16.920;2023-04-22T06:20:29;100729.64;;;8.95;58.95
35577;BME280;21680;52.400;16.920;2023-04-22T06:22:57;100729.67;;;9.04;58.97
35577;BME280;21680;52.400;16.920;2023-04-22T06:25:22;100730.27;;;9.12;58.97
35577;BME280;21680;52.400;16.920;2023-04-22T06:27:47;100731.91;;;9.22;58.92
35577;BME280;21680;52.400;16.920;2023-04-22T06:30:13;100729.97;;;9.30;59.09
35577;BME280;21680;52.400;16.920;2023-04-22T06:32:38;100726.99;;;9.38;58.85
35577;BME280;21680;52.400;16.920;2023-04-22T06:35:04;100724.73;;;9.47;58.90
35577;BME280;21680;52.400;16.920;2023-04-22T06:37:30;100722.60;;;9.56;58.89
35577;BME280;21680;52.400;16.920;2023-04-22T06:39:56;100720.15;;;9.64;58.91
35577;BME280;21680;52.400;16.920;2023-04-22T06:42:21;100718.92;;;9.73;58.88
35577;BME280;21680;52.400;16.920;2023-04-22T06:44:46;100719.26;;;9.87;58.90
35577;BME280;21680;52.400;16.920;2023-04-22T06:47:11;100717.55;;;9.98;58.89
35577;BME280;21680;52.400;16.920;2023-04-22T06:49:36;100716.16;;;10.11;58.85
35577;BME280;21680;52.400;16.920;2023-04-22T06:52:04;100716.81;;;10.26;58.83
35577;BME280;21680;52.400;16.920;2023-04-22T06:54:29;100716.17;;;10.37;58.81
35577;BME280;21680;52.400;16.920;2023-04-22T06:56:56;100711.77;;;10.48;58.74
35577;BME280;21680;52.400;16.920;2023-04-22T06:59:21;100705.23;;;10.59;58.77
35577;BME280;21680;52.400;16.920;2023-04-22T07:01:46;100708.11;;;10.71;58.63
35577;BME280;21680;52.400;16.920;2023-04-22T07:04:13;100707.60;;;10.83;58.70
35577;BME280;21680;52.400;16.920;2023-04-22T07:06:38;100706.27;;;10.93;58.65
35577;BME280;21680;52.400;16.920;2023-04-22T07:09:04;100702.84;;;11.01;58.57
35577;BME280;21680;52.400;16.920;2023-04-22T07:11:29;100698.16;;;11.14;58.52
35577;BME280;21680;52.400;16.920;2023-04-22T07:13:56;100700.36;;;11.28;58.35
35577;BME280;21680;52.400;16.920;2023-04-22T07:16:21;100695.59;;;11.39;58.39
35577;BME280;21680;52.400;16.920;2023-04-22T07:18:47;100698.80;;;11.47;58.28
35577;BME280;21680;52.400;16.920;2023-04-22T07:21:12;100698.41;;;11.55;58.17
35577;BME280;21680;52.400;16.920;2023-04-22T07:23:37;100701.73;;;11.65;58.12
35577;BME280;21680;52.400;16.920;2023-04-22T07:26:02;100698.88;;;11.76;58.13
35577;BME280;21680;52.400;16.920;2023-04-22T07:28:29;100699.67;;;11.86;58.04
35577;BME280;21680;52.400;16.920;2023-04-22T07:30:54;100700.02;;;11.94;57.89
35577;BME280;21680;52.400;16.920;2023-04-22T07:33:19;100696.96;;;12.02;57.87
35577;BME280;21680;52.400;16.920;2023-04-22T07:35:44;100700.42;;;12.11;57.84
35577;BME280;21680;52.400;16.920;2023-04-22T07:38:11;100698.19;;;12.20;57.79
35577;BME280;21680;52.400;16.920;2023-04-22T07:40:36;100694.86;;;12.29;57.84
35577;BME280;21680;52.400;16.920;2023-04-22T07:43:02;100692.16;;;12.41;57.66
35577;BME280;21680;52.400;16.920;2023-04-22T07:45:29;100689.12;;;12.51;57.59
35577;BME280;21680;52.400;16.920;2023-04-22T07:47:54;100689.62;;;12.59;57.42
35577;BME280;21680;52.400;16.920;2023-04-22T07:50:20;100688.46;;;12.67;57.49
35577;BME280;21680;52.400;16.920;2023-04-22T07:52:45;100685.34;;;12.76;57.35
35577;BME280;21680;52.400;16.920;2023-04-22T07:55:10;100688.60;;;12.85;57.25
35577;BME280;21680;52.400;16.920;2023-04-22T07:57:35;100687.75;;;12.95;57.25
35577;BME280;21680;52.400;16.920;2023-04-22T08:00:05;100683.55;;;13.06;57.05
35577;BME280;21680;52.400;16.920;2023-04-22T08:02:32;100686.94;;;13.17;57.04
35577;BME280;21680;52.400;16.920;2023-04-22T08:05:04;100686.95;;;13.27;56.93
35577;BME280;21680;52.400;16.920;2023-04-22T08:07:31;100685.73;;;13.36;56.87
35577;BME280;21680;52.400;16.920;2023-04-22T08:09:58;100685.77;;;13.45;56.78
35577;BME280;21680;52.400;16.920;2023-04-22T08:12:23;100682.77;;;13.54;56.68
35577;BME280;21680;52.400;16.920;2023-04-22T08:14:48;100682.65;;;13.62;56.60
35577;BME280;21680;52.400;16.920;2023-04-22T08:17:14;100678.33;;;13.72;56.59
35577;BME280;21680;52.400;16.920;2023-04-22T08:19:40;100681.09;;;13.81;56.35
35577;BME280;21680;52.400;16.920;2023-04-22T08:22:05;100678.91;;;13.91;56.36
35577;BME280;21680;52.400;16.920;2023-04-22T08:24:31;100679.45;;;14.00;56.18
35577;BME280;21680;52.400;16.920;2023-04-22T08:26:56;100675.55;;;14.12;56.22
35577;BME280;21680;52.400;16.920;2023-04-22T08:29:21;100676.80;;;14.24;56.13
35577;BME280;21680;52.400;16.920;2023-04-22T08:31:47;100676.69;;;14.39;56.08
35577;BME280;21680;52.400;16.920;2023-04-22T08:34:12;100673.53;;;14.50;55.75
35577;BME280;21680;52.400;16.920;2023-04-22T08:36:37;100666.73;;;14.55;55.69
35577;BME280;21680;52.400;16.920;2023-04-22T08:39:02;100666.02;;;14.64;55.61
35577;BME280;21680;52.400;16.920;2023-04-22T08:41:29;100665.10;;;14.76;55.45
35577;BME280;21680;52.400;16.920;2023-04-22T08:43:55;100655.31;;;14.86;55.21
35577;BME280;21680;52.400;16.920;2023-04-22T08:46:21;100655.63;;;15.02;55.16
35577;BME280;21680;52.400;16.920;2023-04-22T08:48:49;100654.14;;;15.20;54.86
35577;BME280;21680;52.400;16.920;2023-04-22T08:51:15;100653.39;;;15.35;54.63
35577;BME280;21680;52.400;16.920;2023-04-22T08:53:44;100654.30;;;15.49;54.49
35577;BME280;21680;52.400;16.920;2023-04-22T08:56:11;100653.65;;;15.62;54.15
35577;BME280;21680;52.400;16.920;2023-04-22T08:58:39;100652.30;;;15.71;53.84
35577;BME280;21680;52.400;16.920;2023-04-22T09:01:06;100655.20;;;15.82;53.70
35577;BME280;21680;52.400;16.920;2023-04-22T09:03:34;100655.38;;;15.93;53.39
35577;BME280;21680;52.400;16.920;2023-04-22T09:06:03;100655.92;;;16.04;52.98
35577;BME280;21680;52.400;16.920;2023-04-22T09:08:29;100652.27;;;16.21;52.66
35577;BME280;21680;52.400;16.920;2023-04-22T09:10:56;100647.34;;;16.27;52.21
35577;BME280;21680;52.400;16.920;2023-04-22T09:13:22;100650.78;;;16.33;51.76
35577;BME280;21680;52.400;16.920;2023-04-22T09:15:48;100649.31;;;16.38;51.59
35577;BME280;21680;52.400;16.920;2023-04-22T09:18:16;100649.41;;;16.42;51.24
35577;BME280;21680;52.400;16.920;2023-04-22T09:20:43;100649.35;;;16.43;50.56
35577;BME280;21680;52.400;16.920;2023-04-22T09:23:12;100645.61;;;16.47;50.39
35577;BME280;21680;52.400;16.920;2023-04-22T09:25:37;100642.79;;;16.52;49.93
35577;BME280;21680;52.400;16.920;2023-04-22T09:28:03;100644.61;;;16.60;49.50
35577;BME280;21680;52.400;16.920;2023-04-22T09:30:33;100643.45;;;16.66;49.01
35577;BME280;21680;52.400;16.920;2023-04-22T09:33:02;100639.00;;;16.73;49.04
35577;BME280;21680;52.400;16.920;2023-04-22T09:35:33;100637.63;;;16.83;48.81
35577;BME280;21680;52.400;16.920;2023-04-22T09:38:00;100634.95;;;16.95;48.46
35577;BME280;21680;52.400;16.920;2023-04-22T09:40:27;100636.45;;;17.04;48.25
35577;BME280;21680;52.400;16.920;2023-04-22T09:42:54;100637.23;;;17.14;48.15
35577;BME280;21680;52.400;16.920;2023-04-22T09:45:29;100633.61;;;17.22;47.84
35577;BME280;21680;52.400;16.920;2023-04-22T09:47:56;100632.38;;;17.24;47.58
35577;BME280;21680;52.400;16.920;2023-04-22T09:50:26;100628.23;;;17.29;47.48
35577;BME280;21680;52.400;16.920;2023-04-22T09:53:05;100625.23;;;17.40;47.00
35577;BME280;21680;52.400;16.920;2023-04-22T09:55:35;100622.89;;;17.43;46.58
35577;BME280;21680;52.400;16.920;2023-04-22T09:58:13;100617.45;;;17.43;46.31
35577;BME280;21680;52.400;16.920;2023-04-22T10:00:45;100613.27;;;17.46;46.02
35577;BME280;21680;52.400;16.920;2023-04-22T10:03:12;100616.27;;;17.52;45.84
35577;BME280;21680;52.400;16.920;2023-04-22T10:05:38;100609.00;;;17.60;45.41
35577;BME280;21680;52.400;16.920;2023-04-22T10:08:09;100604.38;;;17.66;45.14
35577;BME280;21680;52.400;16.920;2023-04-22T10:10:36;100603.89;;;17.73;44.73
35577;BME280;21680;52.400;16.920;2023-04-22T10:13:05;100606.75;;;17.78;44.51
35577;BME280;21680;52.400;16.920;2023-04-22T10:15:32;100603.35;;;17.82;44.18
35577;BME280;21680;52.400;16.920;2023-04-22T10:17:59;100596.31;;;17.90;43.93
35577;BME280;21680;52.400;16.920;2023-04-22T10:20:27;100598.97;;;17.96;43.92
35577;BME280;21680;52.400;16.920;2023-04-22T10:22:55;100595.86;;;18.05;43.78
35577;BME280;21680;52.400;16.920;2023-04-22T10:25:22;100595.70;;;18.22;43.59
35577;BME280;21680;52.400;16.920;2023-04-22T10:27:53;100594.42;;;18.31;43.37
35577;BME280;21680;52.400;16.920;2023-04-22T10:30:29;100595.27;;;18.27;43.10
35577;BME280;21680;52.400;16.920;2023-04-22T10:32:55;100588.34;;;18.26;43.11
35577;BME280;21680;52.400;16.920;2023-04-22T10:35:27;100590.58;;;18.36;43.16
35577;BME280;21680;52.400;16.920;2023-04-22T10:37:53;100583.98;;;18.49;43.05
35577;BME280;21680;52.400;16.920;2023-04-22T10:40:19;100581.05;;;18.59;42.81
35577;BME280;21680;52.400;16.920;2023-04-22T10:42:50;100579.10;;;18.63;42.46
35577;BME280;21680;52.400;16.920;2023-04-22T10:45:16;100577.57;;;18.71;42.25
35577;BME280;21680;52.400;16.920;2023-04-22T10:47:42;100577.77;;;18.83;41.96
35577;BME280;21680;52.400;16.920;2023-04-22T10:50:19;100571.67;;;18.91;41.69
35577;BME280;21680;52.400;16.920;2023-04-22T10:52:57;100576.21;;;19.04;41.51
35577;BME280;21680;52.400;16.920;2023-04-22T10:55:23;100576.48;;;19.17;41.44
35577;BME280;21680;52.400;16.920;2023-04-22T10:57:50;100575.92;;;19.26;40.97
35577;BME280;21680;52.400;16.920;2023-04-22T11:00:27;100568.76;;;19.27;40.42
35577;BME280;21680;52.400;16.920;2023-04-22T11:05:30;100561.50;;;19.16;39.73
35577;BME280;21680;52.400;16.920;2023-04-22T11:08:05;100560.48;;;19.18;39.59
35577;BME280;21680;52.400;16.920;2023-04-22T11:10:42;100554.33;;;19.26;39.65
35577;BME280;21680;52.400;16.920;2023-04-22T11:13:09;100553.39;;;19.38;39.53
35577;BME280;21680;52.400;16.920;2023-04-22T11:15:39;100551.88;;;19.50;39.52
35577;BME280;21680;52.400;16.920;2023-04-22T11:18:24;100549.24;;;19.58;39.33
35577;BME280;21680;52.400;16.920;2023-04-22T11:20:51;100543.73;;;19.67;39.29
35577;BME280;21680;52.400;16.920;2023-04-22T11:23:27;100539.13;;;19.79;39.32
35577;BME280;21680;52.400;16.920;2023-04-22T11:25:54;100533.05;;;19.93;39.18
35577;BME280;21680;52.400;16.920;2023-04-22T11:28:20;100532.49;;;20.04;39.00
35577;BME280;21680;52.400;16.920;2023-04-22T11:30:47;100531.15;;;20.17;38.74
35577;BME280;21680;52.400;16.920;2023-04-22T11:33:14;100530.39;;;20.33;38.42
35577;BME280;21680;52.400;16.920;2023-04-22T11:35:40;100527.38;;;20.41;38.35
35577;BME280;21680;52.400;16.920;2023-04-22T11:38:07;100526.56;;;20.46;38.16
35577;BME280;21680;52.400;16.920;2023-04-22T11:40:40;100525.48;;;20.48;37.90
35577;BME280;21680;52.400;16.920;2023-04-22T11:43:07;100524.71;;;20.49;37.26
35577;BME280;21680;52.400;16.920;2023-04-22T11:45:34;100521.59;;;20.40;37.46
35577;BME280;21680;52.400;16.920;2023-04-22T11:48:01;100522.73;;;20.52;37.75
35577;BME280;21680;52.400;16.920;2023-04-22T11:50:30;100513.44;;;20.59;37.25
35577;BME280;21680;52.400;16.920;2023-04-22T11:53:01;100510.51;;;20.49;36.87
35577;BME280;21680;52.400;16.920;2023-04-22T11:55:27;100509.73;;;20.43;36.83
35577;BME280;21680;52.400;16.920;2023-04-22T12:00:27;100504.03;;;20.73;37.03
35577;BME280;21680;52.400;16.920;2023-04-22T12:03:00;100499.42;;;20.84;36.94
35577;BME280;21680;52.400;16.920;2023-04-22T12:05:35;100499.19;;;21.03;36.80
35577;BME280;21680;52.400;16.920;2023-04-22T12:08:02;100493.70;;;21.19;36.65
35577;BME280;21680;52.400;16.920;2023-04-22T12:10:28;100489.46;;;21.34;36.49
35577;BME280;21680;52.400;16.920;2023-04-22T12:12:54;100489.11;;;21.34;36.29
35577;BME280;21680;52.400;16.920;2023-04-22T12:15:20;100489.60;;;21.33;36.23
35577;BME280;21680;52.400;16.920;2023-04-22T12:17:45;100487.22;;;21.45;36.31
35577;BME280;21680;52.400;16.920;2023-04-22T12:20:11;100487.76;;;21.66;36.42
35577;BME280;21680;52.400;16.920;2023-04-22T12:22:37;100488.23;;;21.85;36.38
35577;BME280;21680;52.400;16.920;2023-04-22T12:25:03;100483.61;;;22.01;35.93
35577;BME280;21680;52.400;16.920;2023-04-22T12:27:28;100482.58;;;22.14;35.56
35577;BME280;21680;52.400;16.920;2023-04-22T12:29:55;100481.05;;;22.23;35.58
35577;BME280;21680;52.400;16.920;2023-04-22T12:32:22;100478.01;;;22.41;35.35
35577;BME280;21680;52.400;16.920;2023-04-22T12:34:48;100474.66;;;22.59;35.14
35577;BME280;21680;52.400;16.920;2023-04-22T12:37:14;100472.59;;;22.75;35.12
35577;BME280;21680;52.400;16.920;2023-04-22T12:39:39;100473.02;;;22.87;34.88
35577;BME280;21680;52.400;16.920;2023-04-22T12:42:05;100466.23;;;22.86;34.77
35577;BME280;21680;52.400;16.920;2023-04-22T12:44:32;100461.43;;;22.96;34.75
35577;BME280;21680;52.400;16.920;2023-04-22T12:46:57;100459.72;;;23.11;34.62